Hoquiam, Washington
Current Conditions -  °F | °C
As of 4:53 PM on Friday 24 Oct 2014 (Local Time) from KHQM Reporting Station
Overcast Overcast  
Wind Chill: 55°   Ceiling: 11000
Heat Index: 55°   Visibility: 7mi
Dew Point: 48°   Wind: 9mph
Humidity: 77%   Direction: 40°NE
Pressure: 29.85"   Gusts: NA
Location:  46.98°N, 123.88°W
Report Text: KHQM 242353Z AUTO 04008KT 7SM OVC110 13/09 A2985 RMK AO2 SLP110 T01280089 10128 20111 56029
Loading
Personal Weather Stations






























Interactive Weather Map
Tropical Storm Tracking
New forecast layout! Learn more

10-Day Weather Forecast

Advertisements
Track Severe Weather on mobile